Rechercher aéroport 
image banner adimage banner adimage banner ad
image banner ad

5PS5 - Chestnut Hill

Situé à Duncannon, United States

ICAO - 5PS5, IATA -

Données fournies par Airmate  

Information générale

Coordonnées: N40°23'48" W77°4'27"
Élévation : 620 feet MSL.
Variation magnétique : -10° East
Voir autres Aéroports à Pennsylvania

Données opérationnelles

Special qualification required
Heure actuelle UTC:
Heure actuelle locale:
Météo à : KCXY - Capital City ( 27 km )
METAR: KCXY 131956Z 18006KT 10SM OVC029 25/19 A2988 RMK AO2 SLP117 T02500189 $
Voir NOTAMs / SUP AIP / TFR affectant cet aéroport [VIEW]
Fréquences de communication: [VIEW]

Pistes:

Identifiant RWYQFULongueur (ft)Largeur (ft)SurfaceLDA (ft)
071700100GRASS
251700100GRASS

Coordonnées de l'aéroport

Adresse: Duncannon United States

Vue satellite de 5PS5